New Orleans, LA (70129)

10:35 AM CST on February 27, 2017 (GMT -0600)
Chalmette - Meraux Elementary | | Change Station

Elev 7 ft 29.96 °N, 89.96 °W | Updated 9 minutes ago

Overcast
Overcast
76.5 °F
Feels Like 78 °F
N
16.1
Wind Variable Wind from SE

Today
High -- | Low -- °F
--% Chance of Precip.
Yesterday
High -- | Low -- °F
Precip. -- in
Pressure 30.10 in
Visibility 10.0 miles
Clouds Mostly Cloudy 2200 ft
Mostly Cloudy 2900 ft
Overcast 8000 ft
Heat Index 78 °F
Dew Point 66 °F
Humidity 69%
Rainfall 0.00 in
Snow Depth Not available.
6:27 AM 5:57 PM
New Moon, 1% visible
METAR KNEW 271553Z AUTO 18017KT 10SM BKN022 BKN029 OVC080 24/19 A3012 RMK AO2 SLP193 T02440194
Pressure 30.10 in
Visibility 10.0 miles
Clouds Mostly Cloudy 2200 ft
Mostly Cloudy 2900 ft
Overcast 8000 ft
Heat Index 78 °F
Dew Point 66 °F
Humidity 69%
Rainfall 0.00 in
Snow Depth Not available.
6:27 AM 5:57 PM
New Moon, 1% visible
METAR KNEW 271553Z AUTO 18017KT 10SM BKN022 BKN029 OVC080 24/19 A3012 RMK AO2 SLP193 T02440194

Get Your Daily Forecast Email!

Thanks for signing up!

Be on the lookout for a verification email in your inbox.

You'll start receiving the daily forecast at 8 AM.

×

10-Day Weather Forecast

Almanac

Astronomy

Feb. 27, 2017 Rise Set
Actual Time
Civil Twilight
Nautical Twilight
Astronomical Twilight
Moon
Length of Visible Light
Length of Day
Tomorrow will be .
, % of the Moon is Illuminated

Today's Extremes

State Highs State Lows

Community

WunderPhotos

Upload Photos

1,962,540 photos uploaded!

WunderBlog® & News

Nearby

Air Quality

  Air Quality AQ Index Pollutant
Not available.

Snow Depth

Station Depth Elevation

Earthquake Activity

City Distance Mag. Time & Date
Minimum magnitude displayed is 2.5.

Coastal Water Temperatures

Place Temperature

Stations

Nearby Weather Stations

Station Location Temp. Windchill Dew Point Humidity Wind Precip. Elev Updated Type
                   

Watches & Warnings

There are currently no watches in effect.